Time;durP1;ratioP1;P1;durP2;ratioP2;P2;SDS_P1;SDS_P2;PMS_P1;PMS_P2;Temp;Humidity;BMP_temperature;BMP_pressure;BME280_temperature;BME280_humidity;BME280_pressure;Samples;Min_cycle;Max_cycle;Signal;HPM_P1;HPM_P2
2022/08/19 00:01:42;;;;;;;6.00;5.30;;;;;;;;;;108424;1300;23194;-28
2022/08/19 00:04:09;;;;;;;5.60;4.40;;;;;;;;;;108429;1300;23286;-26
2022/08/19 00:06:35;;;;;;;5.50;4.90;;;;;;;;;;108395;1299;23245;-25
2022/08/19 00:09:00;;;;;;;10.30;4.60;;;;;;;;;;107994;1307;23205;-28
2022/08/19 00:11:27;;;;;;;5.40;4.90;;;;;;;;;;108415;1307;23175;-24
2022/08/19 00:13:53;;;;;;;5.40;4.50;;;;;;;;;;108397;1300;23915;-24
2022/08/19 00:16:20;;;;;;;6.10;5.40;;;;;;;;;;108398;1300;22954;-24
2022/08/19 00:18:46;;;;;;;6.60;5.00;;;;;;;;;;108422;1300;22359;-24
2022/08/19 00:21:11;;;;;;;7.50;6.70;;;;;;;;;;108471;1300;23475;-24
2022/08/19 00:23:37;;;;;;;6.80;5.10;;;;;;;;;;108437;1301;23248;-28
2022/08/19 00:26:04;;;;;;;6.70;5.20;;;;;;;;;;108468;1300;23103;-28
2022/08/19 00:28:30;;;;;;;8.90;6.30;;;;;;;;;;108245;1301;22452;-28
2022/08/19 00:30:55;;;;;;;8.90;8.10;;;;;;;;;;107734;1302;23236;-24
2022/08/19 00:33:21;;;;;;;10.90;10.00;;;;;;;;;;108382;1300;22534;-24
2022/08/19 00:35:46;;;;;;;25.10;23.00;;;;;;;;;;108470;1300;22942;-28
2022/08/19 00:38:12;;;;;;;8.10;7.20;;;;;;;;;;108457;1299;22431;-24
2022/08/19 00:40:38;;;;;;;10.00;9.10;;;;;;;;;;108064;1301;22511;-28
2022/08/19 00:43:07;;;;;;;8.20;7.30;;;;;;;;;;108447;1300;23373;-25
2022/08/19 00:45:33;;;;;;;21.90;20.20;;;;;;;;;;108398;1299;22535;-24
2022/08/19 00:48:03;;;;;;;9.40;7.50;;;;;;;;;;108291;1302;22550;-25
2022/08/19 00:50:29;;;;;;;6.50;5.80;;;;;;;;;;108401;1301;22560;-28
2022/08/19 00:52:55;;;;;;;9.50;8.60;;;;;;;;;;108388;1307;22538;-28
2022/08/19 00:55:22;;;;;;;6.70;5.60;;;;;;;;;;108306;1307;22544;-24
2022/08/19 00:57:50;;;;;;;8.20;6.00;;;;;;;;;;108392;1300;23268;-28
2022/08/19 01:00:16;;;;;;;12.60;6.40;;;;;;;;;;108425;1292;23660;-25
2022/08/19 01:02:42;;;;;;;9.00;8.00;;;;;;;;;;108419;1300;22507;-28
2022/08/19 01:05:08;;;;;;;10.70;6.50;;;;;;;;;;108405;1300;23001;-28
2022/08/19 01:07:34;;;;;;;19.80;16.50;;;;;;;;;;108420;1299;22575;-25
2022/08/19 01:10:00;;;;;;;8.30;6.00;;;;;;;;;;108393;1299;22551;-28
2022/08/19 01:12:25;;;;;;;11.30;9.40;;;;;;;;;;108161;1300;25206;-28
2022/08/19 01:14:51;;;;;;;26.10;23.30;;;;;;;;;;107353;1302;1003548;-25
2022/08/19 01:17:16;;;;;;;19.80;18.00;;;;;;;;;;108429;1300;22455;-25
2022/08/19 01:19:42;;;;;;;9.30;8.00;;;;;;;;;;108433;1300;22928;-24
2022/08/19 01:22:07;;;;;;;7.70;7.10;;;;;;;;;;107998;1300;23240;-28
2022/08/19 01:24:33;;;;;;;33.20;30.00;;;;;;;;;;108269;1301;23182;-29
2022/08/19 01:26:59;;;;;;;6.20;5.60;;;;;;;;;;107794;1299;22527;-26
2022/08/19 01:29:24;;;;;;;17.00;15.60;;;;;;;;;;108316;1302;22897;-28
2022/08/19 01:31:52;;;;;;;9.40;8.50;;;;;;;;;;108409;1301;23267;-29
2022/08/19 01:34:18;;;;;;;8.40;6.80;;;;;;;;;;108407;1299;23355;-24
2022/08/19 01:36:45;;;;;;;7.70;6.50;;;;;;;;;;108428;1300;23262;-25
2022/08/19 01:39:11;;;;;;;9.10;7.40;;;;;;;;;;108404;1301;22879;-29
2022/08/19 01:41:37;;;;;;;7.10;6.50;;;;;;;;;;108164;1307;23229;-26
2022/08/19 01:44:04;;;;;;;10.40;6.30;;;;;;;;;;108345;1307;22394;-24
2022/08/19 01:46:31;;;;;;;13.10;7.20;;;;;;;;;;108354;1301;22559;-29
2022/08/19 01:48:56;;;;;;;11.20;10.10;;;;;;;;;;108427;1300;23184;-28
2022/08/19 01:51:22;;;;;;;14.50;10.00;;;;;;;;;;108432;1300;22541;-29
2022/08/19 01:53:47;;;;;;;12.20;9.90;;;;;;;;;;107753;1299;934400;-29
2022/08/19 01:56:13;;;;;;;19.40;15.20;;;;;;;;;;108377;1301;22414;-28
2022/08/19 01:58:41;;;;;;;8.30;7.10;;;;;;;;;;108373;1300;22389;-28
2022/08/19 02:01:06;;;;;;;13.20;12.00;;;;;;;;;;108439;1300;23286;-28
2022/08/19 02:03:32;;;;;;;33.40;28.40;;;;;;;;;;108372;1300;22405;-25
2022/08/19 02:05:59;;;;;;;56.50;50.80;;;;;;;;;;108398;1307;22544;-28
2022/08/19 02:08:25;;;;;;;70.90;64.30;;;;;;;;;;108314;1300;22674;-28
2022/08/19 02:10:51;;;;;;;13.70;12.40;;;;;;;;;;108374;1299;22503;-25
2022/08/19 02:13:17;;;;;;;23.80;21.10;;;;;;;;;;108445;1300;22535;-25
2022/08/19 02:15:42;;;;;;;24.10;22.10;;;;;;;;;;108377;1299;23293;-28
2022/08/19 02:18:08;;;;;;;14.80;10.90;;;;;;;;;;107835;1307;23335;-28
2022/08/19 02:20:35;;;;;;;26.00;23.40;;;;;;;;;;108352;1299;22584;-28
2022/08/19 02:23:01;;;;;;;23.40;21.10;;;;;;;;;;108317;1299;22619;-28
2022/08/19 02:25:26;;;;;;;13.20;12.00;;;;;;;;;;108311;1299;23389;-28
2022/08/19 02:27:53;;;;;;;28.50;25.80;;;;;;;;;;108347;1301;25279;-28
2022/08/19 02:30:19;;;;;;;18.90;17.10;;;;;;;;;;108290;1300;25905;-28
2022/08/19 02:32:45;;;;;;;23.00;11.40;;;;;;;;;;108138;1307;23275;-25
2022/08/19 02:35:11;;;;;;;29.70;27.00;;;;;;;;;;108422;1299;22403;-28
2022/08/19 02:40:06;;;;;;;23.70;21.70;;;;;;;;;;108365;1299;23415;-28
2022/08/19 02:42:32;;;;;;;25.40;23.10;;;;;;;;;;108445;1307;22476;-24
2022/08/19 02:44:59;;;;;;;10.10;8.70;;;;;;;;;;108386;1307;22423;-28
2022/08/19 02:47:24;;;;;;;21.90;16.70;;;;;;;;;;108410;1299;23705;-24
2022/08/19 02:49:50;;;;;;;24.30;21.90;;;;;;;;;;108311;1299;25250;-23
2022/08/19 02:52:16;;;;;;;14.80;11.90;;;;;;;;;;108350;1301;23175;-27
2022/08/19 02:54:41;;;;;;;23.90;18.70;;;;;;;;;;108142;1300;23308;-30
2022/08/19 02:57:07;;;;;;;24.10;21.90;;;;;;;;;;108342;1307;22536;-26
2022/08/19 02:59:33;;;;;;;13.20;12.00;;;;;;;;;;108364;1299;22545;-30
2022/08/19 03:01:58;;;;;;;14.30;9.30;;;;;;;;;;108385;1299;23104;-30
2022/08/19 03:04:24;;;;;;;11.60;8.70;;;;;;;;;;108384;1299;22518;-30
2022/08/19 03:06:49;;;;;;;10.00;9.10;;;;;;;;;;108421;1300;22523;-30
2022/08/19 03:09:15;;;;;;;16.00;10.90;;;;;;;;;;108293;1299;22541;-26
2022/08/19 03:11:40;;;;;;;13.60;8.20;;;;;;;;;;108291;1300;23223;-30
2022/08/19 03:14:07;;;;;;;10.40;9.00;;;;;;;;;;108365;1300;22388;-30
2022/08/19 03:16:33;;;;;;;14.30;9.90;;;;;;;;;;108459;1299;23238;-30
2022/08/19 03:18:59;;;;;;;10.80;9.60;;;;;;;;;;108457;1299;22536;-29
2022/08/19 03:21:25;;;;;;;9.60;8.60;;;;;;;;;;108437;1300;23304;-27
2022/08/19 03:23:54;;;;;;;8.50;7.70;;;;;;;;;;108444;1299;22554;-30
2022/08/19 03:26:20;;;;;;;10.60;9.20;;;;;;;;;;108445;1299;22531;-30
2022/08/19 03:28:49;;;;;;;16.90;9.40;;;;;;;;;;108355;1300;22619;-30
2022/08/19 03:31:16;;;;;;;13.90;11.40;;;;;;;;;;108398;1300;22454;-30
2022/08/19 03:33:41;;;;;;;10.10;8.80;;;;;;;;;;108404;1299;22531;-30
2022/08/19 03:36:08;;;;;;;9.40;8.00;;;;;;;;;;108389;1307;23280;-30
2022/08/19 03:38:35;;;;;;;15.70;10.30;;;;;;;;;;108294;1307;22420;-26
2022/08/19 03:41:02;;;;;;;8.90;8.20;;;;;;;;;;108447;1300;22392;-30
2022/08/19 03:43:28;;;;;;;11.60;10.50;;;;;;;;;;108419;1299;22906;-26
2022/08/19 03:45:57;;;;;;;9.10;8.00;;;;;;;;;;108472;1300;23332;-30
2022/08/19 03:48:22;;;;;;;14.10;8.90;;;;;;;;;;108233;1299;23396;-30
2022/08/19 03:50:49;;;;;;;10.30;9.20;;;;;;;;;;108384;1307;23646;-26
2022/08/19 03:53:15;;;;;;;12.50;9.10;;;;;;;;;;108359;1299;25241;-30
2022/08/19 03:55:41;;;;;;;17.50;8.80;;;;;;;;;;108431;1300;22802;-30
2022/08/19 03:58:06;;;;;;;10.40;8.30;;;;;;;;;;108430;1307;22610;-26
2022/08/19 04:00:33;;;;;;;13.90;9.30;;;;;;;;;;108440;1299;23125;-30
2022/08/19 04:02:58;;;;;;;15.20;8.90;;;;;;;;;;108464;1300;23063;-30
2022/08/19 04:05:28;;;;;;;12.20;10.20;;;;;;;;;;108460;1300;23369;-30
2022/08/19 04:07:54;;;;;;;26.50;10.00;;;;;;;;;;108431;1300;23274;-27
2022/08/19 04:10:20;;;;;;;12.30;10.20;;;;;;;;;;108436;1300;22950;-27
2022/08/19 04:12:46;;;;;;;14.80;10.20;;;;;;;;;;108407;1307;22436;-30
2022/08/19 04:15:11;;;;;;;10.10;8.90;;;;;;;;;;108368;1305;22435;-28
2022/08/19 04:17:37;;;;;;;12.10;10.90;;;;;;;;;;108375;1301;22929;-28
2022/08/19 04:20:02;;;;;;;16.20;9.10;;;;;;;;;;108438;1302;22565;-24
2022/08/19 04:22:29;;;;;;;10.60;8.90;;;;;;;;;;108426;1300;23196;-30
2022/08/19 04:24:55;;;;;;;14.30;10.30;;;;;;;;;;108369;1299;22582;-30
2022/08/19 04:27:20;;;;;;;9.50;8.20;;;;;;;;;;107723;1292;22545;-25
2022/08/19 04:29:47;;;;;;;21.80;10.80;;;;;;;;;;108343;1302;23318;-26
2022/08/19 04:32:14;;;;;;;10.00;9.00;;;;;;;;;;108399;1299;22413;-29
2022/08/19 04:34:40;;;;;;;9.20;8.30;;;;;;;;;;108439;1300;23076;-26
2022/08/19 04:37:11;;;;;;;10.60;8.70;;;;;;;;;;108473;1300;22968;-26
2022/08/19 04:44:35;;;;;;;12.30;9.90;;;;;;;;;;108154;1299;22526;-26
2022/08/19 04:47:00;;;;;;;11.50;9.10;;;;;;;;;;108292;1299;23080;-29
2022/08/19 04:49:26;;;;;;;12.60;8.50;;;;;;;;;;108418;1300;22486;-26
2022/08/19 04:51:53;;;;;;;10.00;9.10;;;;;;;;;;108265;1300;23343;-29
2022/08/19 04:54:22;;;;;;;11.20;8.80;;;;;;;;;;108444;1301;22489;-30
2022/08/19 04:56:49;;;;;;;8.60;7.70;;;;;;;;;;108417;1307;22604;-26
2022/08/19 04:59:15;;;;;;;9.40;8.30;;;;;;;;;;107561;1299;23351;-29
2022/08/19 05:01:42;;;;;;;9.90;8.50;;;;;;;;;;108403;1300;23097;-29
2022/08/19 05:04:07;;;;;;;10.10;7.40;;;;;;;;;;108445;1286;22520;-26
2022/08/19 05:06:33;;;;;;;9.60;8.10;;;;;;;;;;108476;1300;22414;-30
2022/08/19 05:09:00;;;;;;;18.70;9.00;;;;;;;;;;108474;1300;23275;-29
2022/08/19 05:11:28;;;;;;;8.20;7.50;;;;;;;;;;108440;1300;22534;-29
2022/08/19 05:13:53;;;;;;;10.20;8.30;;;;;;;;;;108285;1301;22470;-26
2022/08/19 05:16:19;;;;;;;9.30;8.10;;;;;;;;;;107760;1302;23370;-26
2022/08/19 05:23:44;;;;;;;10.50;7.90;;;;;;;;;;108385;1302;22628;-26
2022/08/19 05:26:10;;;;;;;11.90;7.80;;;;;;;;;;108300;1300;23068;-25
2022/08/19 05:28:36;;;;;;;17.10;8.80;;;;;;;;;;108369;1300;22369;-29
2022/08/19 05:31:01;;;;;;;11.70;6.20;;;;;;;;;;108233;1300;23213;-29
2022/08/19 05:33:27;;;;;;;10.60;7.40;;;;;;;;;;108376;1302;23383;-29
2022/08/19 05:35:53;;;;;;;8.70;7.70;;;;;;;;;;108384;1300;25022;-26
2022/08/19 05:38:19;;;;;;;9.20;6.80;;;;;;;;;;108415;1300;22509;-29
2022/08/19 05:40:46;;;;;;;29.90;6.70;;;;;;;;;;108196;1307;22536;-25
2022/08/19 05:43:15;;;;;;;9.90;7.50;;;;;;;;;;108412;1302;22421;-29
2022/08/19 05:45:41;;;;;;;9.80;7.70;;;;;;;;;;108290;1307;22534;-29
2022/08/19 05:48:10;;;;;;;7.90;7.10;;;;;;;;;;108170;1300;23341;-29
2022/08/19 05:50:37;;;;;;;13.50;8.30;;;;;;;;;;108415;1300;23194;-29
2022/08/19 05:53:02;;;;;;;10.30;9.00;;;;;;;;;;108224;1300;23284;-25
2022/08/19 05:55:28;;;;;;;16.60;8.30;;;;;;;;;;108317;1300;23318;-29
2022/08/19 05:57:53;;;;;;;14.70;7.90;;;;;;;;;;108438;1300;23276;-29
2022/08/19 06:00:19;;;;;;;13.10;7.90;;;;;;;;;;108370;1301;23298;-29
2022/08/19 06:02:44;;;;;;;9.00;7.00;;;;;;;;;;108401;1300;23165;-29
2022/08/19 06:05:10;;;;;;;8.30;6.60;;;;;;;;;;108371;1300;22439;-30
2022/08/19 06:07:36;;;;;;;10.50;6.80;;;;;;;;;;108403;1300;23366;-26
2022/08/19 06:10:03;;;;;;;7.10;6.40;;;;;;;;;;108310;1300;22575;-26
2022/08/19 06:12:33;;;;;;;11.40;6.70;;;;;;;;;;108433;1300;22431;-30
2022/08/19 06:14:59;;;;;;;6.70;6.10;;;;;;;;;;108387;1299;24692;-26
2022/08/19 06:17:25;;;;;;;8.50;6.50;;;;;;;;;;108212;1307;23210;-24
2022/08/19 06:19:51;;;;;;;6.00;5.50;;;;;;;;;;108389;1301;23223;-25
2022/08/19 06:22:17;;;;;;;9.10;6.70;;;;;;;;;;108406;1301;22411;-25
2022/08/19 06:24:42;;;;;;;10.50;6.50;;;;;;;;;;108434;1300;23211;-25
2022/08/19 06:27:08;;;;;;;6.20;5.60;;;;;;;;;;108366;1307;23246;-29
2022/08/19 06:29:34;;;;;;;7.20;6.50;;;;;;;;;;108416;1301;22840;-29
2022/08/19 06:32:00;;;;;;;6.30;5.60;;;;;;;;;;108407;1300;23274;-26
2022/08/19 06:34:27;;;;;;;7.60;6.80;;;;;;;;;;108399;1302;22538;-26
2022/08/19 06:36:53;;;;;;;12.50;5.30;;;;;;;;;;108041;1300;22542;-28
2022/08/19 06:39:20;;;;;;;8.40;5.00;;;;;;;;;;108120;1291;23216;-24
2022/08/19 06:41:46;;;;;;;7.30;6.00;;;;;;;;;;108392;1300;23127;-25
2022/08/19 06:44:12;;;;;;;7.80;5.00;;;;;;;;;;108468;1300;23184;-28
2022/08/19 06:46:38;;;;;;;7.00;5.20;;;;;;;;;;108406;1301;22564;-28
2022/08/19 06:49:03;;;;;;;9.60;4.70;;;;;;;;;;108226;1301;22407;-27
2022/08/19 06:51:31;;;;;;;6.70;3.80;;;;;;;;;;108438;1300;23349;-28
2022/08/19 06:53:56;;;;;;;5.90;5.40;;;;;;;;;;108323;1307;23141;-28
2022/08/19 06:56:24;;;;;;;6.30;5.40;;;;;;;;;;107570;1307;23575;-24
2022/08/19 06:58:52;;;;;;;6.60;4.30;;;;;;;;;;108389;1299;23258;-28
2022/08/19 07:01:17;;;;;;;15.00;5.30;;;;;;;;;;108340;1299;22521;-25
2022/08/19 07:03:43;;;;;;;11.60;4.60;;;;;;;;;;108404;1301;22066;-28
2022/08/19 07:06:10;;;;;;;5.80;4.50;;;;;;;;;;108384;1299;23218;-24
2022/08/19 07:08:36;;;;;;;7.80;4.20;;;;;;;;;;108333;1300;23212;-28
2022/08/19 07:11:03;;;;;;;5.20;4.60;;;;;;;;;;108425;1301;22380;-25
2022/08/19 07:13:29;;;;;;;4.60;4.20;;;;;;;;;;108410;1307;23235;-28
2022/08/19 07:15:54;;;;;;;9.00;4.80;;;;;;;;;;107622;1300;1002980;-28
2022/08/19 07:18:21;;;;;;;5.30;4.00;;;;;;;;;;108379;1299;22632;-28
2022/08/19 07:20:47;;;;;;;5.90;4.80;;;;;;;;;;108398;1299;22551;-25
2022/08/19 07:23:12;;;;;;;8.90;3.80;;;;;;;;;;108452;1299;23265;-28
2022/08/19 07:25:38;;;;;;;7.50;4.90;;;;;;;;;;108428;1300;23376;-24
2022/08/19 07:28:03;;;;;;;8.10;4.90;;;;;;;;;;108371;1300;22520;-24
2022/08/19 07:30:29;;;;;;;8.40;4.60;;;;;;;;;;108199;1300;23211;-24
2022/08/19 07:32:55;;;;;;;8.10;4.80;;;;;;;;;;108399;1299;23095;-24
2022/08/19 07:35:21;;;;;;;5.50;3.10;;;;;;;;;;108309;1299;22504;-28
2022/08/19 07:37:47;;;;;;;8.20;3.60;;;;;;;;;;108417;1299;22449;-28
2022/08/19 07:40:13;;;;;;;12.90;5.70;;;;;;;;;;108412;1300;23271;-24
2022/08/19 07:42:38;;;;;;;5.70;5.00;;;;;;;;;;108433;1307;23158;-24
2022/08/19 07:45:05;;;;;;;5.10;4.20;;;;;;;;;;108289;1299;23883;-24
2022/08/19 07:47:31;;;;;;;8.30;5.40;;;;;;;;;;108074;1301;22701;-28
2022/08/19 07:49:57;;;;;;;8.10;5.40;;;;;;;;;;108355;1300;22541;-25
2022/08/19 07:52:22;;;;;;;7.10;4.90;;;;;;;;;;108413;1299;23234;-28
2022/08/19 07:54:49;;;;;;;14.90;4.60;;;;;;;;;;108414;1300;22686;-24
2022/08/19 07:57:15;;;;;;;7.10;5.00;;;;;;;;;;108352;1301;23298;-25
2022/08/19 07:59:40;;;;;;;8.60;4.70;;;;;;;;;;108430;1292;23195;-24
2022/08/19 08:02:06;;;;;;;7.50;4.60;;;;;;;;;;108435;1300;22466;-25
2022/08/19 08:09:30;;;;;;;4.80;3.80;;;;;;;;;;108258;1302;22543;-24
2022/08/19 08:11:57;;;;;;;13.50;5.80;;;;;;;;;;108470;1301;23333;-24
2022/08/19 08:14:24;;;;;;;5.10;3.60;;;;;;;;;;108388;1300;23662;-24
2022/08/19 08:16:50;;;;;;;9.10;4.20;;;;;;;;;;108224;1301;23849;-24
2022/08/19 08:19:17;;;;;;;21.30;6.80;;;;;;;;;;108434;1301;22546;-24
2022/08/19 08:21:42;;;;;;;16.10;5.30;;;;;;;;;;108350;1301;22528;-24
2022/08/19 08:24:08;;;;;;;6.00;4.70;;;;;;;;;;108384;1300;22552;-24
2022/08/19 08:26:33;;;;;;;10.30;5.40;;;;;;;;;;108405;1300;23585;-24
2022/08/19 08:28:59;;;;;;;13.00;4.60;;;;;;;;;;108388;1300;23214;-24
2022/08/19 08:31:24;;;;;;;6.70;4.60;;;;;;;;;;108424;1299;23316;-25
2022/08/19 08:33:50;;;;;;;7.50;5.10;;;;;;;;;;108461;1300;22531;-28
2022/08/19 08:36:15;;;;;;;4.80;4.30;;;;;;;;;;108409;1301;23179;-28
2022/08/19 08:38:41;;;;;;;6.00;4.40;;;;;;;;;;108391;1307;22466;-28
2022/08/19 08:41:10;;;;;;;6.10;4.40;;;;;;;;;;108369;1299;22534;-28
2022/08/19 08:43:37;;;;;;;3.80;3.50;;;;;;;;;;108410;1307;22095;-28
2022/08/19 08:46:08;;;;;;;11.70;6.10;;;;;;;;;;107683;1300;1002995;-28
2022/08/19 08:48:36;;;;;;;9.10;5.70;;;;;;;;;;107981;1300;22528;-24
2022/08/19 08:51:03;;;;;;;6.10;3.20;;;;;;;;;;108268;1302;23222;-28
2022/08/19 08:53:29;;;;;;;16.20;5.80;;;;;;;;;;108327;1307;22469;-28
2022/08/19 08:55:55;;;;;;;3.60;3.30;;;;;;;;;;108236;1307;22537;-24
2022/08/19 08:58:24;;;;;;;5.20;4.10;;;;;;;;;;108450;1299;23316;-24
2022/08/19 09:00:50;;;;;;;9.70;4.80;;;;;;;;;;108384;1301;23256;-24
2022/08/19 09:03:19;;;;;;;6.10;4.10;;;;;;;;;;108408;1302;23250;-28
2022/08/19 09:05:48;;;;;;;4.50;3.10;;;;;;;;;;108297;1300;22545;-24
2022/08/19 09:08:17;;;;;;;6.60;3.40;;;;;;;;;;108375;1301;22391;-24
2022/08/19 09:10:44;;;;;;;5.00;3.30;;;;;;;;;;108362;1300;25140;-24
2022/08/19 09:13:11;;;;;;;4.10;2.80;;;;;;;;;;108178;1307;22517;-24
2022/08/19 09:15:41;;;;;;;4.20;3.80;;;;;;;;;;108345;1301;23236;-28
2022/08/19 09:18:06;;;;;;;11.80;3.20;;;;;;;;;;108180;1302;22589;-24
2022/08/19 09:20:32;;;;;;;4.10;2.00;;;;;;;;;;108390;1302;23145;-28
2022/08/19 09:22:58;;;;;;;7.90;3.10;;;;;;;;;;108421;1300;22748;-24
2022/08/19 09:25:24;;;;;;;6.80;2.40;;;;;;;;;;108391;1300;23448;-28
2022/08/19 09:27:49;;;;;;;8.80;3.10;;;;;;;;;;108381;1300;22548;-28
2022/08/19 09:30:16;;;;;;;4.30;3.10;;;;;;;;;;108301;1302;23231;-33
2022/08/19 09:32:42;;;;;;;5.10;2.80;;;;;;;;;;108363;1301;22498;-24
2022/08/19 09:35:08;;;;;;;10.20;2.90;;;;;;;;;;108344;1302;22082;-28
2022/08/19 09:37:34;;;;;;;5.20;2.70;;;;;;;;;;107651;1300;1002785;-28
2022/08/19 09:40:00;;;;;;;6.40;3.40;;;;;;;;;;108381;1302;22554;-28
2022/08/19 09:42:25;;;;;;;7.10;3.40;;;;;;;;;;107432;1301;23366;-24
2022/08/19 09:44:51;;;;;;;5.80;2.70;;;;;;;;;;108350;1301;22652;-24
2022/08/19 09:47:16;;;;;;;3.80;3.40;;;;;;;;;;108451;1300;22560;-24
2022/08/19 09:49:42;;;;;;;13.30;3.40;;;;;;;;;;108401;1300;23202;-24
2022/08/19 09:52:09;;;;;;;5.30;2.80;;;;;;;;;;108362;1301;23444;-24
2022/08/19 09:54:34;;;;;;;26.20;3.90;;;;;;;;;;107698;1292;959372;-25
2022/08/19 09:57:00;;;;;;;8.70;3.30;;;;;;;;;;108427;1301;22685;-24
2022/08/19 09:59:26;;;;;;;10.80;3.30;;;;;;;;;;108302;1307;22348;-28
2022/08/19 10:01:52;;;;;;;15.00;4.00;;;;;;;;;;108365;1299;22563;-25
2022/08/19 10:04:17;;;;;;;4.20;3.30;;;;;;;;;;108362;1301;23297;-24
2022/08/19 10:06:43;;;;;;;15.30;3.10;;;;;;;;;;108369;1300;23082;-25
2022/08/19 10:09:09;;;;;;;9.90;3.30;;;;;;;;;;108237;1300;23215;-28
2022/08/19 10:11:36;;;;;;;9.80;3.80;;;;;;;;;;108293;1307;22588;-24
2022/08/19 10:14:02;;;;;;;11.80;3.90;;;;;;;;;;108214;1301;22777;-24
2022/08/19 10:16:27;;;;;;;7.70;3.80;;;;;;;;;;108204;1307;22505;-28
2022/08/19 10:18:53;;;;;;;7.80;2.90;;;;;;;;;;108359;1307;22463;-25
2022/08/19 10:21:19;;;;;;;6.90;4.50;;;;;;;;;;108437;1300;23176;-28
2022/08/19 10:23:46;;;;;;;3.20;2.40;;;;;;;;;;108417;1301;23266;-28
2022/08/19 10:26:13;;;;;;;9.20;3.20;;;;;;;;;;108426;1301;22755;-24
2022/08/19 10:28:39;;;;;;;6.80;3.20;;;;;;;;;;108465;1300;23116;-24
2022/08/19 10:31:06;;;;;;;4.80;2.50;;;;;;;;;;108408;1300;22882;-28
2022/08/19 10:33:31;;;;;;;5.10;3.00;;;;;;;;;;108161;1301;22542;-28
2022/08/19 10:35:59;;;;;;;13.10;2.70;;;;;;;;;;108014;1300;22554;-28
2022/08/19 10:38:25;;;;;;;12.10;3.50;;;;;;;;;;108347;1301;22393;-24
2022/08/19 10:40:50;;;;;;;22.10;4.20;;;;;;;;;;108143;1299;23287;-28
2022/08/19 10:43:17;;;;;;;11.10;3.40;;;;;;;;;;108338;1307;22456;-24
2022/08/19 10:45:42;;;;;;;6.30;2.80;;;;;;;;;;108321;1299;23051;-28
2022/08/19 10:48:08;;;;;;;6.90;3.20;;;;;;;;;;108359;1307;22534;-28
2022/08/19 10:53:04;;;;;;;9.10;3.80;;;;;;;;;;108412;1299;22551;-28
2022/08/19 10:57:58;;;;;;;6.00;3.60;;;;;;;;;;108364;1300;22519;-28
2022/08/19 11:00:24;;;;;;;6.80;3.40;;;;;;;;;;108424;1300;22395;-24
2022/08/19 11:02:50;;;;;;;9.20;4.60;;;;;;;;;;108325;1301;22544;-24
2022/08/19 11:05:16;;;;;;;12.60;4.70;;;;;;;;;;108011;1298;23249;-28
2022/08/19 11:07:44;;;;;;;8.50;3.40;;;;;;;;;;108407;1300;23204;-24
2022/08/19 11:10:10;;;;;;;22.20;6.00;;;;;;;;;;108354;1307;22535;-28
2022/08/19 11:12:38;;;;;;;10.90;4.10;;;;;;;;;;108209;1301;22499;-28
2022/08/19 11:15:04;;;;;;;13.60;3.30;;;;;;;;;;108397;1299;23509;-28
2022/08/19 11:17:31;;;;;;;10.30;3.70;;;;;;;;;;108425;1292;22470;-28
2022/08/19 11:19:56;;;;;;;4.20;3.30;;;;;;;;;;108419;1300;23315;-28
2022/08/19 11:22:22;;;;;;;18.10;4.80;;;;;;;;;;108380;1299;22441;-28
2022/08/19 11:24:47;;;;;;;6.80;4.00;;;;;;;;;;108434;1299;23325;-28
2022/08/19 11:27:14;;;;;;;8.30;3.40;;;;;;;;;;108264;1301;22843;-25
2022/08/19 11:29:39;;;;;;;4.00;2.80;;;;;;;;;;108436;1300;23353;-28
2022/08/19 11:32:06;;;;;;;11.00;3.90;;;;;;;;;;108413;1305;22425;-24
2022/08/19 11:34:31;;;;;;;11.80;3.80;;;;;;;;;;108394;1301;22254;-25
2022/08/19 11:36:58;;;;;;;7.30;3.40;;;;;;;;;;108205;1300;22360;-28
2022/08/19 11:39:24;;;;;;;14.20;3.90;;;;;;;;;;108319;1302;23263;-24
2022/08/19 11:41:50;;;;;;;12.40;4.60;;;;;;;;;;108414;1299;23222;-28
2022/08/19 11:44:17;;;;;;;16.00;3.60;;;;;;;;;;108453;1307;22543;-28
2022/08/19 11:46:46;;;;;;;7.10;3.30;;;;;;;;;;108511;1299;22388;-25
2022/08/19 11:49:13;;;;;;;9.40;2.70;;;;;;;;;;108409;1298;22549;-28
2022/08/19 11:51:38;;;;;;;8.00;3.90;;;;;;;;;;108352;1299;22705;-25
2022/08/19 11:54:05;;;;;;;5.70;3.70;;;;;;;;;;108473;1298;23221;-29
2022/08/19 11:56:30;;;;;;;7.40;3.80;;;;;;;;;;108426;1299;23211;-25
2022/08/19 11:58:56;;;;;;;13.20;3.40;;;;;;;;;;108484;1298;23245;-25
2022/08/19 12:01:23;;;;;;;10.30;3.20;;;;;;;;;;108504;1298;23136;-25
2022/08/19 12:03:49;;;;;;;7.10;3.10;;;;;;;;;;107976;1298;23330;-28
2022/08/19 12:06:16;;;;;;;14.50;4.20;;;;;;;;;;108474;1298;22136;-29
2022/08/19 12:08:42;;;;;;;9.60;3.60;;;;;;;;;;108499;1299;22404;-24
2022/08/19 12:11:08;;;;;;;19.70;5.10;;;;;;;;;;108440;1299;22590;-28
2022/08/19 12:13:33;;;;;;;5.90;3.90;;;;;;;;;;108490;1292;23297;-29
2022/08/19 12:15:59;;;;;;;10.70;3.80;;;;;;;;;;108488;1298;22504;-25
2022/08/19 12:18:25;;;;;;;7.30;3.10;;;;;;;;;;108336;1307;22400;-28
2022/08/19 12:20:51;;;;;;;12.80;4.40;;;;;;;;;;108428;1298;22563;-24
2022/08/19 12:23:17;;;;;;;5.10;4.00;;;;;;;;;;108395;1306;23172;-24
2022/08/19 12:25:49;;;;;;;7.20;3.70;;;;;;;;;;108510;1298;22428;-24
2022/08/19 12:28:15;;;;;;;3.70;3.40;;;;;;;;;;108417;1298;24171;-24
2022/08/19 12:30:41;;;;;;;5.30;3.10;;;;;;;;;;108438;1298;22545;-28
2022/08/19 12:33:07;;;;;;;4.00;3.30;;;;;;;;;;108479;1307;23319;-24
2022/08/19 12:35:33;;;;;;;4.40;3.50;;;;;;;;;;108479;1298;23262;-28
2022/08/19 12:38:01;;;;;;;6.30;4.20;;;;;;;;;;108435;1307;23210;-24
2022/08/19 12:40:27;;;;;;;4.20;2.70;;;;;;;;;;108495;1298;22547;-28
2022/08/19 12:42:53;;;;;;;10.80;4.60;;;;;;;;;;108099;1307;23095;-28
2022/08/19 12:45:19;;;;;;;5.80;4.10;;;;;;;;;;108393;1298;22961;-28
2022/08/19 12:47:46;;;;;;;4.80;3.30;;;;;;;;;;108466;1298;22511;-28
2022/08/19 12:50:12;;;;;;;20.90;4.90;;;;;;;;;;108438;1307;24115;-28
2022/08/19 12:52:38;;;;;;;9.90;3.60;;;;;;;;;;108351;1298;23203;-24
2022/08/19 12:55:04;;;;;;;9.40;4.00;;;;;;;;;;108139;1299;23190;-24
2022/08/19 12:57:32;;;;;;;3.70;3.30;;;;;;;;;;108487;1298;22465;-25
2022/08/19 12:59:58;;;;;;;8.60;3.00;;;;;;;;;;108455;1298;22349;-24
2022/08/19 13:02:23;;;;;;;6.20;4.30;;;;;;;;;;108352;1298;25290;-25
2022/08/19 13:04:49;;;;;;;4.00;3.00;;;;;;;;;;108024;1307;23299;-24
2022/08/19 13:07:14;;;;;;;26.30;3.80;;;;;;;;;;108452;1307;22348;-29
2022/08/19 13:09:42;;;;;;;4.80;3.80;;;;;;;;;;108443;1298;23325;-25
2022/08/19 13:12:12;;;;;;;4.30;3.50;;;;;;;;;;108435;1298;22865;-28
2022/08/19 13:14:39;;;;;;;5.60;2.70;;;;;;;;;;108448;1298;22883;-25
2022/08/19 13:17:05;;;;;;;11.50;3.60;;;;;;;;;;108473;1298;22868;-25
2022/08/19 13:19:31;;;;;;;13.10;3.40;;;;;;;;;;108466;1298;22404;-25
2022/08/19 13:21:57;;;;;;;6.60;3.80;;;;;;;;;;108417;1298;23294;-29
2022/08/19 13:24:23;;;;;;;14.60;4.60;;;;;;;;;;108479;1298;23232;-25
2022/08/19 13:26:48;;;;;;;5.90;3.10;;;;;;;;;;108398;1298;23411;-29
2022/08/19 13:34:12;;;;;;;4.00;3.30;;;;;;;;;;108431;1298;22432;-24
2022/08/19 13:36:38;;;;;;;10.00;4.20;;;;;;;;;;108184;1298;25245;-28
2022/08/19 13:39:04;;;;;;;6.00;2.60;;;;;;;;;;108259;1298;23296;-24
2022/08/19 13:41:30;;;;;;;8.50;3.40;;;;;;;;;;108376;1307;22321;-28
2022/08/19 13:43:56;;;;;;;6.90;3.00;;;;;;;;;;108463;1298;22540;-24
2022/08/19 13:46:21;;;;;;;4.70;3.00;;;;;;;;;;108453;1298;23839;-29
2022/08/19 13:48:48;;;;;;;13.10;4.30;;;;;;;;;;108419;1301;23263;-24
2022/08/19 13:51:16;;;;;;;16.50;4.00;;;;;;;;;;108421;1298;22350;-25
2022/08/19 13:53:42;;;;;;;14.50;3.50;;;;;;;;;;108445;1298;22963;-24
2022/08/19 13:56:11;;;;;;;20.90;4.00;;;;;;;;;;108479;1298;22543;-28
2022/08/19 13:58:36;;;;;;;11.80;4.00;;;;;;;;;;108470;1299;23292;-24
2022/08/19 14:01:02;;;;;;;5.60;4.70;;;;;;;;;;108440;1306;25097;-24
2022/08/19 14:03:28;;;;;;;19.50;3.20;;;;;;;;;;108211;1306;22561;-28
2022/08/19 14:05:53;;;;;;;4.60;4.00;;;;;;;;;;108471;1292;23188;-28
2022/08/19 14:08:19;;;;;;;5.60;3.70;;;;;;;;;;108454;1299;22314;-29
2022/08/19 14:10:45;;;;;;;5.00;3.80;;;;;;;;;;108385;1300;22518;-29
2022/08/19 14:13:12;;;;;;;6.20;4.60;;;;;;;;;;108456;1299;23398;-25
2022/08/19 14:15:37;;;;;;;8.10;3.80;;;;;;;;;;108292;1302;23725;-28
2022/08/19 14:18:03;;;;;;;4.70;2.60;;;;;;;;;;108425;1299;23366;-24
2022/08/19 14:20:28;;;;;;;10.00;2.90;;;;;;;;;;108191;1299;23108;-29
2022/08/19 14:22:54;;;;;;;6.70;3.80;;;;;;;;;;108442;1299;22470;-28
2022/08/19 14:25:21;;;;;;;10.60;3.20;;;;;;;;;;108397;1298;22532;-28
2022/08/19 14:27:46;;;;;;;5.40;3.00;;;;;;;;;;108420;1299;22449;-25
2022/08/19 14:30:13;;;;;;;4.70;2.80;;;;;;;;;;108423;1299;22454;-24
2022/08/19 14:32:39;;;;;;;5.30;3.20;;;;;;;;;;107695;1300;23130;-27
2022/08/19 14:35:04;;;;;;;7.90;3.20;;;;;;;;;;108367;1299;22543;-24
2022/08/19 14:37:30;;;;;;;3.80;3.50;;;;;;;;;;108417;1299;23264;-24
2022/08/19 14:39:56;;;;;;;14.00;3.20;;;;;;;;;;108411;1307;22841;-28
2022/08/19 14:42:21;;;;;;;10.70;3.50;;;;;;;;;;108439;1299;22803;-28